Terminal Aerodrome Forecast
Issued by NWS

Home | Current Version | Previous Version | Text Only | Print | Product List | Glossary On
Versions: 1 2 3 4 5 6 7 8 9 10 11 12 13 14 15 16 17 18 19 20 21 22 23 24 25 26
000
FTUS41 KGYX 222320
TAFAUG
TAF
KAUG 222320Z 2300/2324 03017G30KT P6SM OVC010
      TEMPO 2300/2304 2SM -RADZ BR OVC004
     FM230400 03017G30KT 3SM -RADZ BR OVC004
     FM231500 03017G30KT 2SM RA BR OVC005=

USA.gov is the U.S. government's official web portal to all federal, state and local government web resources and services.